sensor_id;sensor_type;location;lat;lon;timestamp;temperature;humidity
66670;DHT22;53568;52.164;4.472;2023-05-14T00:01:00;12.96;81.06
66670;DHT22;53568;52.164;4.472;2023-05-14T00:03:25;13.04;81.14
66670;DHT22;53568;52.164;4.472;2023-05-14T00:05:51;13.09;80.51
66670;DHT22;53568;52.164;4.472;2023-05-14T00:08:16;13.06;80.83
66670;DHT22;53568;52.164;4.472;2023-05-14T00:10:42;13.03;80.69
66670;DHT22;53568;52.164;4.472;2023-05-14T00:13:07;13.02;80.93
66670;DHT22;53568;52.164;4.472;2023-05-14T00:15:33;13.00;80.71
66670;DHT22;53568;52.164;4.472;2023-05-14T00:17:59;13.00;80.21
66670;DHT22;53568;52.164;4.472;2023-05-14T00:20:24;12.99;80.62
66670;DHT22;53568;52.164;4.472;2023-05-14T00:22:50;12.97;80.99
66670;DHT22;53568;52.164;4.472;2023-05-14T00:25:15;13.09;80.36
66670;DHT22;53568;52.164;4.472;2023-05-14T00:27:41;12.97;80.46
66670;DHT22;53568;52.164;4.472;2023-05-14T00:30:07;12.92;80.80
66670;DHT22;53568;52.164;4.472;2023-05-14T00:32:32;12.92;80.65
66670;DHT22;53568;52.164;4.472;2023-05-14T00:34:58;12.83;80.55
66670;DHT22;53568;52.164;4.472;2023-05-14T00:37:23;12.82;80.46
66670;DHT22;53568;52.164;4.472;2023-05-14T00:39:49;12.85;80.76
66670;DHT22;53568;52.164;4.472;2023-05-14T00:42:15;12.83;80.90
66670;DHT22;53568;52.164;4.472;2023-05-14T00:44:40;12.93;80.84
66670;DHT22;53568;52.164;4.472;2023-05-14T00:47:06;12.92;80.90
66670;DHT22;53568;52.164;4.472;2023-05-14T00:49:33;12.75;81.81
66670;DHT22;53568;52.164;4.472;2023-05-14T00:51:59;12.73;82.35
66670;DHT22;53568;52.164;4.472;2023-05-14T00:54:26;12.70;82.61
66670;DHT22;53568;52.164;4.472;2023-05-14T00:56:53;12.79;82.50
66670;DHT22;53568;52.164;4.472;2023-05-14T00:59:19;12.87;82.14
66670;DHT22;53568;52.164;4.472;2023-05-14T01:01:44;12.73;82.88
66670;DHT22;53568;52.164;4.472;2023-05-14T01:04:11;12.77;83.03
66670;DHT22;53568;52.164;4.472;2023-05-14T01:06:53;12.83;83.00
66670;DHT22;53568;52.164;4.472;2023-05-14T01:09:43;12.77;83.13
66670;DHT22;53568;52.164;4.472;2023-05-14T01:15:12;12.72;84.05
66670;DHT22;53568;52.164;4.472;2023-05-14T01:17:45;12.60;84.56
66670;DHT22;53568;52.164;4.472;2023-05-14T01:20:14;12.62;84.79
66670;DHT22;53568;52.164;4.472;2023-05-14T01:22:40;12.70;84.59
66670;DHT22;53568;52.164;4.472;2023-05-14T01:25:06;12.65;84.66
66670;DHT22;53568;52.164;4.472;2023-05-14T01:27:41;12.66;84.31
66670;DHT22;53568;52.164;4.472;2023-05-14T01:32:38;12.67;84.05
66670;DHT22;53568;52.164;4.472;2023-05-14T01:35:07;12.67;83.81
66670;DHT22;53568;52.164;4.472;2023-05-14T01:37:35;12.59;83.86
66670;DHT22;53568;52.164;4.472;2023-05-14T01:40:02;12.55;83.60
66670;DHT22;53568;52.164;4.472;2023-05-14T01:42:28;12.57;83.38
66670;DHT22;53568;52.164;4.472;2023-05-14T01:44:55;12.62;83.27
66670;DHT22;53568;52.164;4.472;2023-05-14T01:47:20;12.65;83.17
66670;DHT22;53568;52.164;4.472;2023-05-14T01:49:46;12.67;82.80
66670;DHT22;53568;52.164;4.472;2023-05-14T01:52:12;12.67;82.74
66670;DHT22;53568;52.164;4.472;2023-05-14T01:54:37;12.73;82.63
66670;DHT22;53568;52.164;4.472;2023-05-14T01:57:03;12.76;82.56
66670;DHT22;53568;52.164;4.472;2023-05-14T01:59:29;12.70;82.73
66670;DHT22;53568;52.164;4.472;2023-05-14T02:01:54;12.57;83.69
66670;DHT22;53568;52.164;4.472;2023-05-14T02:04:20;12.62;83.61
66670;DHT22;53568;52.164;4.472;2023-05-14T02:06:45;12.59;83.83
66670;DHT22;53568;52.164;4.472;2023-05-14T02:09:12;12.42;84.66
66670;DHT22;53568;52.164;4.472;2023-05-14T02:11:37;12.42;84.58
66670;DHT22;53568;52.164;4.472;2023-05-14T02:14:03;12.36;85.03
66670;DHT22;53568;52.164;4.472;2023-05-14T02:16:29;12.35;85.21
66670;DHT22;53568;52.164;4.472;2023-05-14T02:18:54;12.31;85.46
66670;DHT22;53568;52.164;4.472;2023-05-14T02:21:20;12.38;85.45
66670;DHT22;53568;52.164;4.472;2023-05-14T02:23:45;12.46;85.28
66670;DHT22;53568;52.164;4.472;2023-05-14T02:26:12;12.39;85.38
66670;DHT22;53568;52.164;4.472;2023-05-14T02:28:38;12.32;85.46
66670;DHT22;53568;52.164;4.472;2023-05-14T02:31:03;12.28;85.78
66670;DHT22;53568;52.164;4.472;2023-05-14T02:33:29;12.39;85.03
66670;DHT22;53568;52.164;4.472;2023-05-14T02:35:54;12.29;85.48
66670;DHT22;53568;52.164;4.472;2023-05-14T02:38:20;12.36;85.27
66670;DHT22;53568;52.164;4.472;2023-05-14T02:40:47;12.29;85.33
66670;DHT22;53568;52.164;4.472;2023-05-14T02:43:12;12.33;85.39
66670;DHT22;53568;52.164;4.472;2023-05-14T02:45:38;12.46;85.01
66670;DHT22;53568;52.164;4.472;2023-05-14T02:48:03;12.33;85.10
66670;DHT22;53568;52.164;4.472;2023-05-14T02:50:29;12.35;85.22
66670;DHT22;53568;52.164;4.472;2023-05-14T02:52:54;12.38;85.22
66670;DHT22;53568;52.164;4.472;2023-05-14T02:55:20;12.32;85.29
66670;DHT22;53568;52.164;4.472;2023-05-14T02:57:46;12.25;85.72
66670;DHT22;53568;52.164;4.472;2023-05-14T03:00:11;12.28;85.68
66670;DHT22;53568;52.164;4.472;2023-05-14T03:02:37;12.32;85.44
66670;DHT22;53568;52.164;4.472;2023-05-14T03:05:03;12.20;85.69
66670;DHT22;53568;52.164;4.472;2023-05-14T03:07:28;12.26;85.39
66670;DHT22;53568;52.164;4.472;2023-05-14T03:09:54;12.21;85.64
66670;DHT22;53568;52.164;4.472;2023-05-14T03:12:19;12.20;85.56
66670;DHT22;53568;52.164;4.472;2023-05-14T03:14:45;12.18;85.59
66670;DHT22;53568;52.164;4.472;2023-05-14T03:17:11;12.12;85.68
66670;DHT22;53568;52.164;4.472;2023-05-14T03:19:36;12.06;85.62
66670;DHT22;53568;52.164;4.472;2023-05-14T03:22:02;12.15;85.42
66670;DHT22;53568;52.164;4.472;2023-05-14T03:24:28;12.12;85.59
66670;DHT22;53568;52.164;4.472;2023-05-14T03:26:53;12.02;85.89
66670;DHT22;53568;52.164;4.472;2023-05-14T03:29:19;12.12;85.52
66670;DHT22;53568;52.164;4.472;2023-05-14T03:31:44;12.15;85.51
66670;DHT22;53568;52.164;4.472;2023-05-14T03:34:10;12.04;85.54
66670;DHT22;53568;52.164;4.472;2023-05-14T03:36:35;12.12;85.58
66670;DHT22;53568;52.164;4.472;2023-05-14T03:39:03;12.06;85.56
66670;DHT22;53568;52.164;4.472;2023-05-14T03:41:31;12.10;85.56
66670;DHT22;53568;52.164;4.472;2023-05-14T03:43:56;12.15;85.51
66670;DHT22;53568;52.164;4.472;2023-05-14T03:46:22;12.24;85.13
66670;DHT22;53568;52.164;4.472;2023-05-14T03:48:47;12.22;85.20
66670;DHT22;53568;52.164;4.472;2023-05-14T03:51:13;12.05;85.45
66670;DHT22;53568;52.164;4.472;2023-05-14T03:53:38;12.14;85.47
66670;DHT22;53568;52.164;4.472;2023-05-14T03:56:04;12.20;85.50
66670;DHT22;53568;52.164;4.472;2023-05-14T03:58:30;12.20;85.25
66670;DHT22;53568;52.164;4.472;2023-05-14T04:00:55;12.11;85.59
66670;DHT22;53568;52.164;4.472;2023-05-14T04:03:21;12.06;85.51
66670;DHT22;53568;52.164;4.472;2023-05-14T04:05:46;12.20;85.32
66670;DHT22;53568;52.164;4.472;2023-05-14T04:08:12;12.25;85.33
66670;DHT22;53568;52.164;4.472;2023-05-14T04:10:37;12.10;85.30
66670;DHT22;53568;52.164;4.472;2023-05-14T04:13:02;12.25;84.99
66670;DHT22;53568;52.164;4.472;2023-05-14T04:15:28;12.14;85.37
66670;DHT22;53568;52.164;4.472;2023-05-14T04:17:54;12.14;85.06
66670;DHT22;53568;52.164;4.472;2023-05-14T04:20:19;12.14;85.33
66670;DHT22;53568;52.164;4.472;2023-05-14T04:22:45;12.10;85.35
66670;DHT22;53568;52.164;4.472;2023-05-14T04:25:10;12.12;85.21
66670;DHT22;53568;52.164;4.472;2023-05-14T04:27:36;12.17;84.97
66670;DHT22;53568;52.164;4.472;2023-05-14T04:30:01;12.14;85.16
66670;DHT22;53568;52.164;4.472;2023-05-14T04:32:27;12.11;85.08
66670;DHT22;53568;52.164;4.472;2023-05-14T04:34:52;11.99;85.50
66670;DHT22;53568;52.164;4.472;2023-05-14T04:37:18;12.02;85.35
66670;DHT22;53568;52.164;4.472;2023-05-14T04:39:43;12.11;85.18
66670;DHT22;53568;52.164;4.472;2023-05-14T04:42:09;12.12;85.02
66670;DHT22;53568;52.164;4.472;2023-05-14T04:44:35;12.01;84.86
66670;DHT22;53568;52.164;4.472;2023-05-14T04:47:02;12.02;85.08
66670;DHT22;53568;52.164;4.472;2023-05-14T04:49:28;11.95;85.29
66670;DHT22;53568;52.164;4.472;2023-05-14T04:51:53;11.82;85.67
66670;DHT22;53568;52.164;4.472;2023-05-14T04:54:19;11.85;85.80
66670;DHT22;53568;52.164;4.472;2023-05-14T04:56:44;11.74;86.30
66670;DHT22;53568;52.164;4.472;2023-05-14T04:59:10;11.85;86.46
66670;DHT22;53568;52.164;4.472;2023-05-14T05:01:35;11.74;87.16
66670;DHT22;53568;52.164;4.472;2023-05-14T05:04:01;11.85;86.84
66670;DHT22;53568;52.164;4.472;2023-05-14T05:06:27;11.78;87.33
66670;DHT22;53568;52.164;4.472;2023-05-14T05:08:52;11.71;87.90
66670;DHT22;53568;52.164;4.472;2023-05-14T05:11:18;11.84;87.62
66670;DHT22;53568;52.164;4.472;2023-05-14T05:13:43;11.92;87.57
66670;DHT22;53568;52.164;4.472;2023-05-14T05:16:09;11.82;88.04
66670;DHT22;53568;52.164;4.472;2023-05-14T05:18:34;11.85;88.23
66670;DHT22;53568;52.164;4.472;2023-05-14T05:21:00;11.99;87.85
66670;DHT22;53568;52.164;4.472;2023-05-14T05:23:25;11.94;87.80
66670;DHT22;53568;52.164;4.472;2023-05-14T05:25:51;11.91;87.89
66670;DHT22;53568;52.164;4.472;2023-05-14T05:28:16;11.87;88.19
66670;DHT22;53568;52.164;4.472;2023-05-14T05:30:42;12.05;87.85
66670;DHT22;53568;52.164;4.472;2023-05-14T05:33:10;12.04;87.71
66670;DHT22;53568;52.164;4.472;2023-05-14T05:35:36;12.10;87.80
66670;DHT22;53568;52.164;4.472;2023-05-14T05:38:02;11.92;88.16
66670;DHT22;53568;52.164;4.472;2023-05-14T05:40:28;11.97;88.04
66670;DHT22;53568;52.164;4.472;2023-05-14T05:42:53;12.04;88.02
66670;DHT22;53568;52.164;4.472;2023-05-14T05:45:19;12.08;87.93
66670;DHT22;53568;52.164;4.472;2023-05-14T05:47:44;12.15;87.68
66670;DHT22;53568;52.164;4.472;2023-05-14T05:50:10;12.10;87.80
66670;DHT22;53568;52.164;4.472;2023-05-14T05:52:36;12.06;88.03
66670;DHT22;53568;52.164;4.472;2023-05-14T05:55:02;12.20;87.69
66670;DHT22;53568;52.164;4.472;2023-05-14T05:57:28;12.18;87.68
66670;DHT22;53568;52.164;4.472;2023-05-14T05:59:54;12.11;87.63
66670;DHT22;53568;52.164;4.472;2023-05-14T06:02:19;12.12;87.71
66670;DHT22;53568;52.164;4.472;2023-05-14T06:04:45;12.18;87.80
66670;DHT22;53568;52.164;4.472;2023-05-14T06:07:10;12.26;87.57
66670;DHT22;53568;52.164;4.472;2023-05-14T06:09:36;12.29;87.79
66670;DHT22;53568;52.164;4.472;2023-05-14T06:12:02;12.41;87.22
66670;DHT22;53568;52.164;4.472;2023-05-14T06:14:30;12.48;86.95
66670;DHT22;53568;52.164;4.472;2023-05-14T06:16:56;12.49;87.01
66670;DHT22;53568;52.164;4.472;2023-05-14T06:19:22;12.46;87.17
66670;DHT22;53568;52.164;4.472;2023-05-14T06:21:48;12.45;86.54
66670;DHT22;53568;52.164;4.472;2023-05-14T06:24:16;12.46;86.33
66670;DHT22;53568;52.164;4.472;2023-05-14T06:26:44;12.18;87.46
66670;DHT22;53568;52.164;4.472;2023-05-14T06:29:09;12.28;87.16
66670;DHT22;53568;52.164;4.472;2023-05-14T06:31:35;12.48;86.56
66670;DHT22;53568;52.164;4.472;2023-05-14T06:34:00;12.56;86.40
66670;DHT22;53568;52.164;4.472;2023-05-14T06:36:26;12.60;86.05
66670;DHT22;53568;52.164;4.472;2023-05-14T06:38:51;12.62;86.05
66670;DHT22;53568;52.164;4.472;2023-05-14T06:41:17;12.76;85.55
66670;DHT22;53568;52.164;4.472;2023-05-14T06:43:42;12.92;85.34
66670;DHT22;53568;52.164;4.472;2023-05-14T06:46:08;12.89;85.44
66670;DHT22;53568;52.164;4.472;2023-05-14T06:48:33;12.73;85.09
66670;DHT22;53568;52.164;4.472;2023-05-14T06:50:59;12.62;85.75
66670;DHT22;53568;52.164;4.472;2023-05-14T06:53:24;12.73;85.82
66670;DHT22;53568;52.164;4.472;2023-05-14T06:55:50;12.72;86.22
66670;DHT22;53568;52.164;4.472;2023-05-14T06:58:15;12.83;85.53
66670;DHT22;53568;52.164;4.472;2023-05-14T07:00:41;12.75;85.51
66670;DHT22;53568;52.164;4.472;2023-05-14T07:03:07;12.60;85.58
66670;DHT22;53568;52.164;4.472;2023-05-14T07:05:32;12.62;86.02
66670;DHT22;53568;52.164;4.472;2023-05-14T07:07:58;12.86;85.58
66670;DHT22;53568;52.164;4.472;2023-05-14T07:10:23;12.96;85.23
66670;DHT22;53568;52.164;4.472;2023-05-14T07:12:49;13.17;84.87
66670;DHT22;53568;52.164;4.472;2023-05-14T07:15:15;13.24;84.55
66670;DHT22;53568;52.164;4.472;2023-05-14T07:17:40;13.23;83.94
66670;DHT22;53568;52.164;4.472;2023-05-14T07:20:06;13.10;84.61
66670;DHT22;53568;52.164;4.472;2023-05-14T07:22:32;13.10;84.50
66670;DHT22;53568;52.164;4.472;2023-05-14T07:24:57;13.10;84.46
66670;DHT22;53568;52.164;4.472;2023-05-14T07:27:23;13.13;84.54
66670;DHT22;53568;52.164;4.472;2023-05-14T07:29:49;13.13;84.79
66670;DHT22;53568;52.164;4.472;2023-05-14T07:32:15;13.21;84.31
66670;DHT22;53568;52.164;4.472;2023-05-14T07:34:40;13.30;84.04
66670;DHT22;53568;52.164;4.472;2023-05-14T07:37:06;13.17;84.37
66670;DHT22;53568;52.164;4.472;2023-05-14T07:39:31;13.28;83.92
66670;DHT22;53568;52.164;4.472;2023-05-14T07:41:57;13.31;83.76
66670;DHT22;53568;52.164;4.472;2023-05-14T07:44:22;13.27;83.55
66670;DHT22;53568;52.164;4.472;2023-05-14T07:46:48;13.26;83.09
66670;DHT22;53568;52.164;4.472;2023-05-14T07:49:16;13.34;83.40
66670;DHT22;53568;52.164;4.472;2023-05-14T07:51:42;13.55;82.47
66670;DHT22;53568;52.164;4.472;2023-05-14T07:54:07;13.48;83.32
66670;DHT22;53568;52.164;4.472;2023-05-14T07:56:33;13.55;83.19
66670;DHT22;53568;52.164;4.472;2023-05-14T07:58:58;13.73;82.08
66670;DHT22;53568;52.164;4.472;2023-05-14T08:01:24;13.68;81.84
66670;DHT22;53568;52.164;4.472;2023-05-14T08:03:50;13.67;82.00
66670;DHT22;53568;52.164;4.472;2023-05-14T08:06:16;13.88;81.23
66670;DHT22;53568;52.164;4.472;2023-05-14T08:08:41;13.88;81.37
66670;DHT22;53568;52.164;4.472;2023-05-14T08:11:07;14.04;81.11
66670;DHT22;53568;52.164;4.472;2023-05-14T08:13:32;14.09;80.84
66670;DHT22;53568;52.164;4.472;2023-05-14T08:15:58;14.18;79.95
66670;DHT22;53568;52.164;4.472;2023-05-14T08:18:24;14.22;79.74
66670;DHT22;53568;52.164;4.472;2023-05-14T08:20:49;14.33;78.87
66670;DHT22;53568;52.164;4.472;2023-05-14T08:23:15;14.24;79.28
66670;DHT22;53568;52.164;4.472;2023-05-14T08:25:41;14.28;79.43
66670;DHT22;53568;52.164;4.472;2023-05-14T08:28:06;14.25;78.78
66670;DHT22;53568;52.164;4.472;2023-05-14T08:30:32;14.04;79.23
66670;DHT22;53568;52.164;4.472;2023-05-14T08:32:58;14.04;79.07
66670;DHT22;53568;52.164;4.472;2023-05-14T08:35:24;14.09;79.27
66670;DHT22;53568;52.164;4.472;2023-05-14T08:37:49;14.21;79.02
66670;DHT22;53568;52.164;4.472;2023-05-14T08:40:16;14.15;79.12
66670;DHT22;53568;52.164;4.472;2023-05-14T08:42:42;14.00;80.11
66670;DHT22;53568;52.164;4.472;2023-05-14T08:45:18;14.04;79.32
66670;DHT22;53568;52.164;4.472;2023-05-14T08:47:49;14.05;79.61
66670;DHT22;53568;52.164;4.472;2023-05-14T08:50:16;13.97;79.78
66670;DHT22;53568;52.164;4.472;2023-05-14T08:52:41;14.24;79.38
66670;DHT22;53568;52.164;4.472;2023-05-14T08:55:07;14.48;78.70
66670;DHT22;53568;52.164;4.472;2023-05-14T08:57:34;14.58;78.31
66670;DHT22;53568;52.164;4.472;2023-05-14T09:00:02;14.55;77.87
66670;DHT22;53568;52.164;4.472;2023-05-14T09:02:39;14.65;78.16
66670;DHT22;53568;52.164;4.472;2023-05-14T09:05:06;14.59;78.34
66670;DHT22;53568;52.164;4.472;2023-05-14T09:07:33;14.82;77.97
66670;DHT22;53568;52.164;4.472;2023-05-14T09:10:00;14.99;77.22
66670;DHT22;53568;52.164;4.472;2023-05-14T09:12:26;15.04;77.23
66670;DHT22;53568;52.164;4.472;2023-05-14T09:14:52;15.06;76.94
66670;DHT22;53568;52.164;4.472;2023-05-14T09:17:18;15.07;76.98
66670;DHT22;53568;52.164;4.472;2023-05-14T09:19:45;15.36;76.43
66670;DHT22;53568;52.164;4.472;2023-05-14T09:22:17;15.38;75.50
66670;DHT22;53568;52.164;4.472;2023-05-14T09:24:44;15.40;75.89
66670;DHT22;53568;52.164;4.472;2023-05-14T09:27:19;15.34;75.26
66670;DHT22;53568;52.164;4.472;2023-05-14T09:29:46;15.27;75.79
66670;DHT22;53568;52.164;4.472;2023-05-14T09:32:12;15.28;76.11
66670;DHT22;53568;52.164;4.472;2023-05-14T09:34:39;15.34;75.70
66670;DHT22;53568;52.164;4.472;2023-05-14T09:37:07;15.44;75.64
66670;DHT22;53568;52.164;4.472;2023-05-14T09:39:35;15.43;75.57
66670;DHT22;53568;52.164;4.472;2023-05-14T09:42:01;15.43;75.75
66670;DHT22;53568;52.164;4.472;2023-05-14T09:44:27;15.41;75.71
66670;DHT22;53568;52.164;4.472;2023-05-14T09:46:53;15.41;75.30
66670;DHT22;53568;52.164;4.472;2023-05-14T09:49:20;15.37;75.75
66670;DHT22;53568;52.164;4.472;2023-05-14T09:51:45;15.44;75.68
66670;DHT22;53568;52.164;4.472;2023-05-14T09:54:12;15.43;75.71
66670;DHT22;53568;52.164;4.472;2023-05-14T09:56:38;15.43;75.99
66670;DHT22;53568;52.164;4.472;2023-05-14T09:59:06;15.53;75.31
66670;DHT22;53568;52.164;4.472;2023-05-14T10:01:32;15.49;75.09
66670;DHT22;53568;52.164;4.472;2023-05-14T10:03:57;15.58;75.16
66670;DHT22;53568;52.164;4.472;2023-05-14T10:06:27;15.50;75.23
66670;DHT22;53568;52.164;4.472;2023-05-14T10:08:55;15.65;74.70
66670;DHT22;53568;52.164;4.472;2023-05-14T10:11:24;15.64;75.21
66670;DHT22;53568;52.164;4.472;2023-05-14T10:16:52;15.72;74.75
66670;DHT22;53568;52.164;4.472;2023-05-14T10:19:23;15.80;74.75
66670;DHT22;53568;52.164;4.472;2023-05-14T10:21:56;15.91;74.53
66670;DHT22;53568;52.164;4.472;2023-05-14T10:24:24;15.92;73.89
66670;DHT22;53568;52.164;4.472;2023-05-14T10:26:51;15.85;74.79
66670;DHT22;53568;52.164;4.472;2023-05-14T10:29:16;16.02;74.11
66670;DHT22;53568;52.164;4.472;2023-05-14T10:31:47;16.04;73.78
66670;DHT22;53568;52.164;4.472;2023-05-14T10:34:42;15.94;74.53
66670;DHT22;53568;52.164;4.472;2023-05-14T10:37:18;16.02;74.36
66670;DHT22;53568;52.164;4.472;2023-05-14T10:42:23;16.26;73.94
66670;DHT22;53568;52.164;4.472;2023-05-14T10:44:57;16.09;73.69
66670;DHT22;53568;52.164;4.472;2023-05-14T10:47:35;16.05;73.84
66670;DHT22;53568;52.164;4.472;2023-05-14T10:50:03;16.04;74.06
66670;DHT22;53568;52.164;4.472;2023-05-14T10:52:30;16.09;73.70
66670;DHT22;53568;52.164;4.472;2023-05-14T10:55:00;16.21;73.60
66670;DHT22;53568;52.164;4.472;2023-05-14T10:57:28;16.14;73.44
66670;DHT22;53568;52.164;4.472;2023-05-14T10:59:57;16.14;73.36
66670;DHT22;53568;52.164;4.472;2023-05-14T11:02:28;16.04;73.41
66670;DHT22;53568;52.164;4.472;2023-05-14T11:07:33;16.42;73.22
66670;DHT22;53568;52.164;4.472;2023-05-14T11:10:05;16.56;72.48
66670;DHT22;53568;52.164;4.472;2023-05-14T11:12:33;16.65;72.01
66670;DHT22;53568;52.164;4.472;2023-05-14T11:15:00;16.62;71.62
66670;DHT22;53568;52.164;4.472;2023-05-14T11:17:28;16.65;71.38
66670;DHT22;53568;52.164;4.472;2023-05-14T11:19:55;16.60;71.91
66670;DHT22;53568;52.164;4.472;2023-05-14T11:22:21;16.62;71.77
66670;DHT22;53568;52.164;4.472;2023-05-14T11:24:47;16.65;71.48
66670;DHT22;53568;52.164;4.472;2023-05-14T11:27:13;16.70;72.09
66670;DHT22;53568;52.164;4.472;2023-05-14T11:29:45;16.84;71.37
66670;DHT22;53568;52.164;4.472;2023-05-14T11:32:13;17.04;70.81
66670;DHT22;53568;52.164;4.472;2023-05-14T11:34:39;17.17;69.18
66670;DHT22;53568;52.164;4.472;2023-05-14T11:37:06;17.02;69.53
66670;DHT22;53568;52.164;4.472;2023-05-14T11:39:33;17.19;70.21
66670;DHT22;53568;52.164;4.472;2023-05-14T11:42:01;17.20;69.82
66670;DHT22;53568;52.164;4.472;2023-05-14T11:44:27;17.37;69.74
66670;DHT22;53568;52.164;4.472;2023-05-14T11:46:54;17.24;69.97
66670;DHT22;53568;52.164;4.472;2023-05-14T11:49:21;17.28;69.84
66670;DHT22;53568;52.164;4.472;2023-05-14T11:51:48;17.44;69.38
66670;DHT22;53568;52.164;4.472;2023-05-14T11:54:13;17.44;69.59
66670;DHT22;53568;52.164;4.472;2023-05-14T11:56:39;17.57;69.25
66670;DHT22;53568;52.164;4.472;2023-05-14T11:59:05;17.54;69.35
66670;DHT22;53568;52.164;4.472;2023-05-14T12:01:39;17.41;69.58
66670;DHT22;53568;52.164;4.472;2023-05-14T12:04:05;17.43;69.53
66670;DHT22;53568;52.164;4.472;2023-05-14T12:06:31;17.54;68.66
66670;DHT22;53568;52.164;4.472;2023-05-14T12:08:56;17.36;69.77
66670;DHT22;53568;52.164;4.472;2023-05-14T12:11:22;17.41;69.66
66670;DHT22;53568;52.164;4.472;2023-05-14T12:13:47;17.47;69.72
66670;DHT22;53568;52.164;4.472;2023-05-14T12:16:13;17.40;68.74
66670;DHT22;53568;52.164;4.472;2023-05-14T12:18:39;17.12;69.64
66670;DHT22;53568;52.164;4.472;2023-05-14T12:21:05;16.90;70.03
66670;DHT22;53568;52.164;4.472;2023-05-14T12:23:33;16.75;70.82
66670;DHT22;53568;52.164;4.472;2023-05-14T12:26:03;16.73;70.96
66670;DHT22;53568;52.164;4.472;2023-05-14T12:28:31;16.75;70.60
66670;DHT22;53568;52.164;4.472;2023-05-14T12:30:57;16.63;71.44
66670;DHT22;53568;52.164;4.472;2023-05-14T12:33:24;16.51;72.22
66670;DHT22;53568;52.164;4.472;2023-05-14T12:35:53;16.49;71.32
66670;DHT22;53568;52.164;4.472;2023-05-14T12:38:25;16.44;72.05
66670;DHT22;53568;52.164;4.472;2023-05-14T12:40:51;16.55;72.00
66670;DHT22;53568;52.164;4.472;2023-05-14T12:43:16;16.53;72.16
66670;DHT22;53568;52.164;4.472;2023-05-14T12:45:42;16.53;71.94
66670;DHT22;53568;52.164;4.472;2023-05-14T12:48:07;16.62;71.85
66670;DHT22;53568;52.164;4.472;2023-05-14T12:50:33;16.65;71.92
66670;DHT22;53568;52.164;4.472;2023-05-14T12:52:58;16.69;71.48
66670;DHT22;53568;52.164;4.472;2023-05-14T12:55:24;16.62;70.54
66670;DHT22;53568;52.164;4.472;2023-05-14T12:57:49;16.22;72.19
66670;DHT22;53568;52.164;4.472;2023-05-14T13:00:15;16.14;72.61
66670;DHT22;53568;52.164;4.472;2023-05-14T13:02:41;16.15;72.76
66670;DHT22;53568;52.164;4.472;2023-05-14T13:05:07;16.26;72.73
66670;DHT22;53568;52.164;4.472;2023-05-14T13:07:32;16.11;73.57
66670;DHT22;53568;52.164;4.472;2023-05-14T13:09:58;16.11;72.90
66670;DHT22;53568;52.164;4.472;2023-05-14T13:12:23;16.16;72.54
66670;DHT22;53568;52.164;4.472;2023-05-14T13:14:49;15.84;73.48
66670;DHT22;53568;52.164;4.472;2023-05-14T13:17:15;15.91;73.27
66670;DHT22;53568;52.164;4.472;2023-05-14T13:19:40;15.87;73.00
66670;DHT22;53568;52.164;4.472;2023-05-14T13:22:06;15.88;73.08
66670;DHT22;53568;52.164;4.472;2023-05-14T13:24:33;15.53;73.47
66670;DHT22;53568;52.164;4.472;2023-05-14T13:26:59;15.37;75.00
66670;DHT22;53568;52.164;4.472;2023-05-14T13:29:25;15.51;74.72
66670;DHT22;53568;52.164;4.472;2023-05-14T13:31:53;15.49;74.74
66670;DHT22;53568;52.164;4.472;2023-05-14T13:34:19;15.53;73.98
66670;DHT22;53568;52.164;4.472;2023-05-14T13:36:44;15.55;73.94
66670;DHT22;53568;52.164;4.472;2023-05-14T13:39:11;15.46;74.22
66670;DHT22;53568;52.164;4.472;2023-05-14T13:41:36;15.46;74.53
66670;DHT22;53568;52.164;4.472;2023-05-14T13:44:04;15.19;75.06
66670;DHT22;53568;52.164;4.472;2023-05-14T13:46:30;14.99;76.27
66670;DHT22;53568;52.164;4.472;2023-05-14T13:48:56;14.97;75.72
66670;DHT22;53568;52.164;4.472;2023-05-14T13:51:22;14.92;76.41
66670;DHT22;53568;52.164;4.472;2023-05-14T13:53:48;14.80;75.81
66670;DHT22;53568;52.164;4.472;2023-05-14T13:56:14;14.75;76.68
66670;DHT22;53568;52.164;4.472;2023-05-14T13:58:39;14.96;76.34
66670;DHT22;53568;52.164;4.472;2023-05-14T14:01:05;15.08;75.24
66670;DHT22;53568;52.164;4.472;2023-05-14T14:03:31;15.02;75.24
66670;DHT22;53568;52.164;4.472;2023-05-14T14:05:57;14.82;75.97
66670;DHT22;53568;52.164;4.472;2023-05-14T14:08:23;14.93;76.00
66670;DHT22;53568;52.164;4.472;2023-05-14T14:10:48;15.11;75.65
66670;DHT22;53568;52.164;4.472;2023-05-14T14:13:14;15.17;74.30
66670;DHT22;53568;52.164;4.472;2023-05-14T14:15:39;14.48;76.23
66670;DHT22;53568;52.164;4.472;2023-05-14T14:18:05;14.51;76.88
66670;DHT22;53568;52.164;4.472;2023-05-14T14:20:31;14.53;76.22
66670;DHT22;53568;52.164;4.472;2023-05-14T14:22:59;14.72;75.67
66670;DHT22;53568;52.164;4.472;2023-05-14T14:25:25;14.42;76.15
66670;DHT22;53568;52.164;4.472;2023-05-14T14:27:51;14.22;76.66
66670;DHT22;53568;52.164;4.472;2023-05-14T14:30:16;14.35;76.96
66670;DHT22;53568;52.164;4.472;2023-05-14T14:32:43;14.39;77.15
66670;DHT22;53568;52.164;4.472;2023-05-14T14:35:09;14.45;76.34
66670;DHT22;53568;52.164;4.472;2023-05-14T14:37:35;14.56;75.08
66670;DHT22;53568;52.164;4.472;2023-05-14T14:40:01;14.55;75.41
66670;DHT22;53568;52.164;4.472;2023-05-14T14:42:26;14.58;75.36
66670;DHT22;53568;52.164;4.472;2023-05-14T14:44:52;14.36;75.46
66670;DHT22;53568;52.164;4.472;2023-05-14T14:47:17;14.08;76.73
66670;DHT22;53568;52.164;4.472;2023-05-14T14:49:43;13.92;77.47
66670;DHT22;53568;52.164;4.472;2023-05-14T14:52:08;13.88;77.23
66670;DHT22;53568;52.164;4.472;2023-05-14T14:54:34;14.09;76.96
66670;DHT22;53568;52.164;4.472;2023-05-14T14:57:02;14.17;76.60
66670;DHT22;53568;52.164;4.472;2023-05-14T14:59:28;14.04;76.73
66670;DHT22;53568;52.164;4.472;2023-05-14T15:01:54;14.17;76.44
66670;DHT22;53568;52.164;4.472;2023-05-14T15:04:19;14.28;76.52
66670;DHT22;53568;52.164;4.472;2023-05-14T15:06:45;14.58;74.98
66670;DHT22;53568;52.164;4.472;2023-05-14T15:09:10;14.53;74.84
66670;DHT22;53568;52.164;4.472;2023-05-14T15:11:36;14.51;74.61
66670;DHT22;53568;52.164;4.472;2023-05-14T15:14:01;14.32;75.90
66670;DHT22;53568;52.164;4.472;2023-05-14T15:16:27;14.33;74.86
66670;DHT22;53568;52.164;4.472;2023-05-14T15:18:52;14.05;75.83
66670;DHT22;53568;52.164;4.472;2023-05-14T15:21:18;13.97;76.89
66670;DHT22;53568;52.164;4.472;2023-05-14T15:23:43;14.00;76.61
66670;DHT22;53568;52.164;4.472;2023-05-14T15:26:09;13.82;76.45
66670;DHT22;53568;52.164;4.472;2023-05-14T15:28:34;13.77;76.79
66670;DHT22;53568;52.164;4.472;2023-05-14T15:31:00;14.00;76.54
66670;DHT22;53568;52.164;4.472;2023-05-14T15:33:26;14.05;76.50
66670;DHT22;53568;52.164;4.472;2023-05-14T15:35:52;14.14;75.86
66670;DHT22;53568;52.164;4.472;2023-05-14T15:38:17;13.78;76.74